sensor_id;sensor_type;location;lat;lon;timestamp;P1;durP1;ratioP1;P2;durP2;ratioP2
64826;SDS011;51265;53.972;12.286;2023-08-12T00:00:34;2.70;;;1.83;;
64826;SDS011;51265;53.972;12.286;2023-08-12T00:03:02;4.63;;;2.30;;
64826;SDS011;51265;53.972;12.286;2023-08-12T00:05:28;3.47;;;1.90;;
64826;SDS011;51265;53.972;12.286;2023-08-12T00:07:55;2.85;;;2.00;;
64826;SDS011;51265;53.972;12.286;2023-08-12T00:10:22;3.85;;;1.95;;
64826;SDS011;51265;53.972;12.286;2023-08-12T00:12:48;6.00;;;2.15;;
64826;SDS011;51265;53.972;12.286;2023-08-12T00:15:14;4.35;;;2.10;;
64826;SDS011;51265;53.972;12.286;2023-08-12T00:17:41;4.32;;;2.10;;
64826;SDS011;51265;53.972;12.286;2023-08-12T00:20:07;4.22;;;2.50;;
64826;SDS011;51265;53.972;12.286;2023-08-12T00:22:36;4.07;;;2.17;;
64826;SDS011;51265;53.972;12.286;2023-08-12T00:25:03;3.33;;;1.90;;
64826;SDS011;51265;53.972;12.286;2023-08-12T00:27:30;4.38;;;2.40;;
64826;SDS011;51265;53.972;12.286;2023-08-12T00:29:56;6.32;;;2.22;;
64826;SDS011;51265;53.972;12.286;2023-08-12T00:32:22;5.93;;;2.08;;
64826;SDS011;51265;53.972;12.286;2023-08-12T00:34:49;3.88;;;2.03;;
64826;SDS011;51265;53.972;12.286;2023-08-12T00:37:15;3.10;;;1.98;;
64826;SDS011;51265;53.972;12.286;2023-08-12T00:39:41;6.20;;;2.00;;
64826;SDS011;51265;53.972;12.286;2023-08-12T00:42:08;4.60;;;1.95;;
64826;SDS011;51265;53.972;12.286;2023-08-12T00:44:34;2.75;;;1.85;;
64826;SDS011;51265;53.972;12.286;2023-08-12T00:47:00;4.80;;;1.92;;
64826;SDS011;51265;53.972;12.286;2023-08-12T00:49:27;3.92;;;2.30;;
64826;SDS011;51265;53.972;12.286;2023-08-12T00:51:53;5.80;;;2.30;;
64826;SDS011;51265;53.972;12.286;2023-08-12T00:54:22;4.13;;;1.63;;
64826;SDS011;51265;53.972;12.286;2023-08-12T00:56:49;3.08;;;1.90;;
64826;SDS011;51265;53.972;12.286;2023-08-12T00:59:16;3.58;;;1.90;;
64826;SDS011;51265;53.972;12.286;2023-08-12T01:01:44;3.30;;;2.20;;
64826;SDS011;51265;53.972;12.286;2023-08-12T01:04:11;3.53;;;2.13;;
64826;SDS011;51265;53.972;12.286;2023-08-12T01:06:38;7.70;;;2.15;;
64826;SDS011;51265;53.972;12.286;2023-08-12T01:09:05;4.28;;;2.17;;
64826;SDS011;51265;53.972;12.286;2023-08-12T01:14:37;2.53;;;2.13;;
64826;SDS011;51265;53.972;12.286;2023-08-12T01:17:11;5.15;;;1.95;;
64826;SDS011;51265;53.972;12.286;2023-08-12T01:19:40;4.13;;;2.10;;
64826;SDS011;51265;53.972;12.286;2023-08-12T01:22:09;4.18;;;2.20;;
64826;SDS011;51265;53.972;12.286;2023-08-12T01:24:38;3.85;;;2.05;;
64826;SDS011;51265;53.972;12.286;2023-08-12T01:27:07;2.88;;;2.13;;
64826;SDS011;51265;53.972;12.286;2023-08-12T01:29:37;3.75;;;2.20;;
64826;SDS011;51265;53.972;12.286;2023-08-12T01:32:09;5.63;;;1.80;;
64826;SDS011;51265;53.972;12.286;2023-08-12T01:37:26;4.75;;;1.90;;
64826;SDS011;51265;53.972;12.286;2023-08-12T01:39:55;6.38;;;2.17;;
64826;SDS011;51265;53.972;12.286;2023-08-12T01:42:24;3.50;;;1.90;;
64826;SDS011;51265;53.972;12.286;2023-08-12T01:44:53;5.07;;;2.00;;
64826;SDS011;51265;53.972;12.286;2023-08-12T01:59:38;2.85;;;2.00;;
64826;SDS011;51265;53.972;12.286;2023-08-12T02:02:05;3.60;;;2.05;;
64826;SDS011;51265;53.972;12.286;2023-08-12T02:04:32;4.70;;;1.92;;
64826;SDS011;51265;53.972;12.286;2023-08-12T02:06:58;4.22;;;2.20;;
64826;SDS011;51265;53.972;12.286;2023-08-12T02:09:25;5.75;;;1.90;;
64826;SDS011;51265;53.972;12.286;2023-08-12T02:11:51;4.15;;;2.08;;
64826;SDS011;51265;53.972;12.286;2023-08-12T02:14:17;3.05;;;1.73;;
64826;SDS011;51265;53.972;12.286;2023-08-12T02:16:43;4.35;;;2.20;;
64826;SDS011;51265;53.972;12.286;2023-08-12T02:19:09;5.38;;;2.05;;
64826;SDS011;51265;53.972;12.286;2023-08-12T02:21:35;4.00;;;1.80;;
64826;SDS011;51265;53.972;12.286;2023-08-12T02:24:01;3.92;;;1.85;;
64826;SDS011;51265;53.972;12.286;2023-08-12T02:26:28;4.85;;;1.90;;
64826;SDS011;51265;53.972;12.286;2023-08-12T02:28:54;4.25;;;1.90;;
64826;SDS011;51265;53.972;12.286;2023-08-12T02:31:20;7.97;;;2.08;;
64826;SDS011;51265;53.972;12.286;2023-08-12T02:33:47;4.22;;;2.00;;
64826;SDS011;51265;53.972;12.286;2023-08-12T02:36:15;3.58;;;1.80;;
64826;SDS011;51265;53.972;12.286;2023-08-12T02:38:41;3.47;;;1.83;;
64826;SDS011;51265;53.972;12.286;2023-08-12T02:41:09;4.30;;;1.77;;
64826;SDS011;51265;53.972;12.286;2023-08-12T02:43:36;6.60;;;2.00;;
64826;SDS011;51265;53.972;12.286;2023-08-12T02:46:03;4.82;;;2.13;;
64826;SDS011;51265;53.972;12.286;2023-08-12T02:48:29;3.85;;;2.00;;
64826;SDS011;51265;53.972;12.286;2023-08-12T02:50:55;5.85;;;1.80;;
64826;SDS011;51265;53.972;12.286;2023-08-12T02:53:21;4.63;;;1.73;;
64826;SDS011;51265;53.972;12.286;2023-08-12T02:55:48;3.67;;;1.83;;
64826;SDS011;51265;53.972;12.286;2023-08-12T02:58:14;3.78;;;1.90;;
64826;SDS011;51265;53.972;12.286;2023-08-12T03:00:41;5.10;;;2.00;;
64826;SDS011;51265;53.972;12.286;2023-08-12T03:03:09;5.57;;;2.05;;
64826;SDS011;51265;53.972;12.286;2023-08-12T03:05:36;3.28;;;1.90;;
64826;SDS011;51265;53.972;12.286;2023-08-12T03:08:03;3.65;;;2.28;;
64826;SDS011;51265;53.972;12.286;2023-08-12T03:10:30;3.13;;;1.77;;
64826;SDS011;51265;53.972;12.286;2023-08-12T03:12:57;7.05;;;2.13;;
64826;SDS011;51265;53.972;12.286;2023-08-12T03:15:23;3.95;;;1.88;;
64826;SDS011;51265;53.972;12.286;2023-08-12T03:17:50;2.85;;;1.88;;
64826;SDS011;51265;53.972;12.286;2023-08-12T03:20:16;4.38;;;1.73;;
64826;SDS011;51265;53.972;12.286;2023-08-12T03:22:43;2.55;;;1.70;;
64826;SDS011;51265;53.972;12.286;2023-08-12T03:25:11;5.55;;;2.00;;
64826;SDS011;51265;53.972;12.286;2023-08-12T03:27:37;4.32;;;1.80;;
64826;SDS011;51265;53.972;12.286;2023-08-12T03:30:04;2.30;;;1.48;;
64826;SDS011;51265;53.972;12.286;2023-08-12T03:32:32;3.38;;;2.03;;
64826;SDS011;51265;53.972;12.286;2023-08-12T03:34:59;2.92;;;1.80;;
64826;SDS011;51265;53.972;12.286;2023-08-12T03:37:27;2.75;;;1.90;;
64826;SDS011;51265;53.972;12.286;2023-08-12T03:39:54;4.85;;;2.28;;
64826;SDS011;51265;53.972;12.286;2023-08-12T03:42:20;3.67;;;1.80;;
64826;SDS011;51265;53.972;12.286;2023-08-12T03:44:48;4.20;;;2.17;;
64826;SDS011;51265;53.972;12.286;2023-08-12T03:47:14;5.55;;;2.15;;
64826;SDS011;51265;53.972;12.286;2023-08-12T03:49:40;3.72;;;2.00;;
64826;SDS011;51265;53.972;12.286;2023-08-12T03:52:07;3.63;;;2.00;;
64826;SDS011;51265;53.972;12.286;2023-08-12T03:54:34;6.05;;;2.08;;
64826;SDS011;51265;53.972;12.286;2023-08-12T03:57:00;3.13;;;1.88;;
64826;SDS011;51265;53.972;12.286;2023-08-12T03:59:28;4.28;;;1.75;;
64826;SDS011;51265;53.972;12.286;2023-08-12T04:01:54;3.50;;;1.85;;
64826;SDS011;51265;53.972;12.286;2023-08-12T04:04:20;3.88;;;1.88;;
64826;SDS011;51265;53.972;12.286;2023-08-12T04:06:47;3.92;;;2.10;;
64826;SDS011;51265;53.972;12.286;2023-08-12T04:09:20;3.33;;;1.98;;
64826;SDS011;51265;53.972;12.286;2023-08-12T04:11:46;3.47;;;1.90;;
64826;SDS011;51265;53.972;12.286;2023-08-12T04:14:13;9.18;;;2.00;;
64826;SDS011;51265;53.972;12.286;2023-08-12T04:16:42;3.95;;;2.03;;
64826;SDS011;51265;53.972;12.286;2023-08-12T04:19:08;4.75;;;1.90;;
64826;SDS011;51265;53.972;12.286;2023-08-12T04:21:35;8.65;;;2.08;;
64826;SDS011;51265;53.972;12.286;2023-08-12T04:24:01;3.47;;;2.05;;
64826;SDS011;51265;53.972;12.286;2023-08-12T04:26:28;5.72;;;2.10;;
64826;SDS011;51265;53.972;12.286;2023-08-12T04:28:55;7.72;;;2.20;;
64826;SDS011;51265;53.972;12.286;2023-08-12T04:31:21;5.90;;;2.15;;
64826;SDS011;51265;53.972;12.286;2023-08-12T04:33:48;5.45;;;1.98;;
64826;SDS011;51265;53.972;12.286;2023-08-12T04:36:16;4.35;;;1.95;;
64826;SDS011;51265;53.972;12.286;2023-08-12T04:38:42;3.65;;;1.98;;
64826;SDS011;51265;53.972;12.286;2023-08-12T04:41:10;4.32;;;1.63;;
64826;SDS011;51265;53.972;12.286;2023-08-12T04:43:37;6.32;;;2.03;;
64826;SDS011;51265;53.972;12.286;2023-08-12T04:46:03;3.15;;;1.83;;
64826;SDS011;51265;53.972;12.286;2023-08-12T04:48:33;3.45;;;1.90;;
64826;SDS011;51265;53.972;12.286;2023-08-12T04:51:00;3.40;;;1.92;;
64826;SDS011;51265;53.972;12.286;2023-08-12T04:53:30;2.85;;;1.80;;
64826;SDS011;51265;53.972;12.286;2023-08-12T04:55:57;3.65;;;1.88;;
64826;SDS011;51265;53.972;12.286;2023-08-12T04:58:23;3.30;;;2.03;;
64826;SDS011;51265;53.972;12.286;2023-08-12T05:00:50;3.10;;;1.90;;
64826;SDS011;51265;53.972;12.286;2023-08-12T05:03:21;5.03;;;1.80;;
64826;SDS011;51265;53.972;12.286;2023-08-12T05:05:51;3.40;;;2.03;;
64826;SDS011;51265;53.972;12.286;2023-08-12T05:08:19;4.82;;;2.10;;
64826;SDS011;51265;53.972;12.286;2023-08-12T05:10:49;2.75;;;2.17;;
64826;SDS011;51265;53.972;12.286;2023-08-12T05:13:16;3.92;;;2.20;;
64826;SDS011;51265;53.972;12.286;2023-08-12T05:15:46;3.13;;;1.90;;
64826;SDS011;51265;53.972;12.286;2023-08-12T05:18:13;3.17;;;2.00;;
64826;SDS011;51265;53.972;12.286;2023-08-12T05:20:40;3.10;;;2.17;;
64826;SDS011;51265;53.972;12.286;2023-08-12T05:23:07;3.13;;;1.60;;
64826;SDS011;51265;53.972;12.286;2023-08-12T05:25:34;4.35;;;2.17;;
64826;SDS011;51265;53.972;12.286;2023-08-12T05:28:00;12.23;;;6.90;;
64826;SDS011;51265;53.972;12.286;2023-08-12T05:30:26;23.17;;;17.70;;
64826;SDS011;51265;53.972;12.286;2023-08-12T05:32:56;18.50;;;13.48;;
64826;SDS011;51265;53.972;12.286;2023-08-12T05:35:22;16.25;;;11.90;;
64826;SDS011;51265;53.972;12.286;2023-08-12T05:37:48;6.25;;;3.25;;
64826;SDS011;51265;53.972;12.286;2023-08-12T05:40:14;3.35;;;2.63;;
64826;SDS011;51265;53.972;12.286;2023-08-12T05:42:40;4.57;;;1.88;;
64826;SDS011;51265;53.972;12.286;2023-08-12T05:45:07;2.90;;;1.95;;
64826;SDS011;51265;53.972;12.286;2023-08-12T05:47:33;4.72;;;2.10;;
64826;SDS011;51265;53.972;12.286;2023-08-12T05:49:59;2.78;;;1.67;;
64826;SDS011;51265;53.972;12.286;2023-08-12T05:52:26;4.68;;;1.95;;
64826;SDS011;51265;53.972;12.286;2023-08-12T05:54:53;2.83;;;1.73;;
64826;SDS011;51265;53.972;12.286;2023-08-12T05:57:19;3.75;;;1.70;;
64826;SDS011;51265;53.972;12.286;2023-08-12T05:59:45;2.95;;;1.63;;
64826;SDS011;51265;53.972;12.286;2023-08-12T06:02:11;2.00;;;1.60;;
64826;SDS011;51265;53.972;12.286;2023-08-12T06:04:37;3.17;;;1.52;;
64826;SDS011;51265;53.972;12.286;2023-08-12T06:07:04;6.97;;;1.67;;
64826;SDS011;51265;53.972;12.286;2023-08-12T06:09:30;2.28;;;1.50;;
64826;SDS011;51265;53.972;12.286;2023-08-12T06:11:56;6.72;;;1.60;;
64826;SDS011;51265;53.972;12.286;2023-08-12T06:14:22;3.97;;;3.35;;
64826;SDS011;51265;53.972;12.286;2023-08-12T06:16:48;6.05;;;5.43;;
64826;SDS011;51265;53.972;12.286;2023-08-12T06:19:14;6.07;;;4.25;;
64826;SDS011;51265;53.972;12.286;2023-08-12T06:21:40;4.18;;;2.65;;
64826;SDS011;51265;53.972;12.286;2023-08-12T06:24:07;7.68;;;3.10;;
64826;SDS011;51265;53.972;12.286;2023-08-12T06:26:33;3.13;;;2.22;;
64826;SDS011;51265;53.972;12.286;2023-08-12T06:28:59;2.00;;;1.70;;
64826;SDS011;51265;53.972;12.286;2023-08-12T06:31:25;4.25;;;1.90;;
64826;SDS011;51265;53.972;12.286;2023-08-12T06:33:51;4.72;;;1.60;;
64826;SDS011;51265;53.972;12.286;2023-08-12T06:36:18;6.13;;;1.50;;
64826;SDS011;51265;53.972;12.286;2023-08-12T06:38:44;4.07;;;1.60;;
64826;SDS011;51265;53.972;12.286;2023-08-12T06:41:10;2.97;;;1.42;;
64826;SDS011;51265;53.972;12.286;2023-08-12T06:43:36;2.83;;;1.70;;
64826;SDS011;51265;53.972;12.286;2023-08-12T06:46:02;3.17;;;1.48;;
64826;SDS011;51265;53.972;12.286;2023-08-12T06:48:28;4.35;;;1.67;;
64826;SDS011;51265;53.972;12.286;2023-08-12T06:50:55;4.85;;;1.77;;
64826;SDS011;51265;53.972;12.286;2023-08-12T06:53:22;2.63;;;1.42;;
64826;SDS011;51265;53.972;12.286;2023-08-12T06:55:48;3.10;;;1.60;;
64826;SDS011;51265;53.972;12.286;2023-08-12T06:58:14;2.13;;;1.30;;
64826;SDS011;51265;53.972;12.286;2023-08-12T07:00:40;3.90;;;1.50;;
64826;SDS011;51265;53.972;12.286;2023-08-12T07:03:07;1.95;;;1.33;;
64826;SDS011;51265;53.972;12.286;2023-08-12T07:05:33;7.22;;;1.58;;
64826;SDS011;51265;53.972;12.286;2023-08-12T07:08:00;3.55;;;1.40;;
64826;SDS011;51265;53.972;12.286;2023-08-12T07:10:26;2.50;;;1.40;;
64826;SDS011;51265;53.972;12.286;2023-08-12T07:12:52;4.13;;;1.52;;
64826;SDS011;51265;53.972;12.286;2023-08-12T07:15:18;3.40;;;1.65;;
64826;SDS011;51265;53.972;12.286;2023-08-12T07:17:44;4.97;;;3.45;;
64826;SDS011;51265;53.972;12.286;2023-08-12T07:20:10;7.72;;;6.53;;
64826;SDS011;51265;53.972;12.286;2023-08-12T07:22:37;4.60;;;2.40;;
64826;SDS011;51265;53.972;12.286;2023-08-12T07:25:03;2.28;;;1.58;;
64826;SDS011;51265;53.972;12.286;2023-08-12T07:27:30;5.43;;;1.90;;
64826;SDS011;51265;53.972;12.286;2023-08-12T07:29:56;2.25;;;1.50;;
64826;SDS011;51265;53.972;12.286;2023-08-12T07:32:22;5.75;;;1.65;;
64826;SDS011;51265;53.972;12.286;2023-08-12T07:34:49;4.93;;;1.73;;
64826;SDS011;51265;53.972;12.286;2023-08-12T07:37:15;1.90;;;1.35;;
64826;SDS011;51265;53.972;12.286;2023-08-12T07:39:41;3.67;;;1.52;;
64826;SDS011;51265;53.972;12.286;2023-08-12T07:42:07;3.45;;;1.40;;
64826;SDS011;51265;53.972;12.286;2023-08-12T07:44:34;3.60;;;1.65;;
64826;SDS011;51265;53.972;12.286;2023-08-12T07:47:02;5.75;;;1.88;;
64826;SDS011;51265;53.972;12.286;2023-08-12T07:49:28;3.30;;;1.70;;
64826;SDS011;51265;53.972;12.286;2023-08-12T07:51:54;2.35;;;1.35;;
64826;SDS011;51265;53.972;12.286;2023-08-12T07:54:21;5.75;;;1.90;;
64826;SDS011;51265;53.972;12.286;2023-08-12T07:56:47;2.08;;;1.60;;
64826;SDS011;51265;53.972;12.286;2023-08-12T07:59:13;2.80;;;1.35;;
64826;SDS011;51265;53.972;12.286;2023-08-12T08:01:40;5.40;;;1.73;;
64826;SDS011;51265;53.972;12.286;2023-08-12T08:04:06;3.00;;;1.73;;
64826;SDS011;51265;53.972;12.286;2023-08-12T08:06:32;2.92;;;1.70;;
64826;SDS011;51265;53.972;12.286;2023-08-12T08:08:58;3.42;;;1.50;;
64826;SDS011;51265;53.972;12.286;2023-08-12T08:11:26;5.43;;;1.70;;
64826;SDS011;51265;53.972;12.286;2023-08-12T08:13:52;3.40;;;1.67;;
64826;SDS011;51265;53.972;12.286;2023-08-12T08:16:19;4.50;;;1.88;;
64826;SDS011;51265;53.972;12.286;2023-08-12T08:18:45;2.92;;;1.88;;
64826;SDS011;51265;53.972;12.286;2023-08-12T08:21:11;4.43;;;1.48;;
64826;SDS011;51265;53.972;12.286;2023-08-12T08:23:37;3.88;;;1.70;;
64826;SDS011;51265;53.972;12.286;2023-08-12T08:26:06;2.85;;;1.80;;
64826;SDS011;51265;53.972;12.286;2023-08-12T08:28:32;6.80;;;1.95;;
64826;SDS011;51265;53.972;12.286;2023-08-12T08:30:58;4.20;;;1.50;;
64826;SDS011;51265;53.972;12.286;2023-08-12T08:33:25;5.25;;;1.85;;
64826;SDS011;51265;53.972;12.286;2023-08-12T08:35:53;5.10;;;1.80;;
64826;SDS011;51265;53.972;12.286;2023-08-12T08:38:20;3.13;;;1.60;;
64826;SDS011;51265;53.972;12.286;2023-08-12T08:40:48;4.50;;;1.60;;
64826;SDS011;51265;53.972;12.286;2023-08-12T08:43:15;2.72;;;1.48;;
64826;SDS011;51265;53.972;12.286;2023-08-12T08:45:46;7.95;;;2.08;;
64826;SDS011;51265;53.972;12.286;2023-08-12T08:48:15;5.43;;;1.67;;
64826;SDS011;51265;53.972;12.286;2023-08-12T08:50:41;3.80;;;1.35;;
64826;SDS011;51265;53.972;12.286;2023-08-12T08:53:08;3.10;;;1.58;;
64826;SDS011;51265;53.972;12.286;2023-08-12T08:55:35;5.63;;;1.70;;
64826;SDS011;51265;53.972;12.286;2023-08-12T08:58:01;5.80;;;1.73;;
64826;SDS011;51265;53.972;12.286;2023-08-12T09:00:28;3.42;;;1.48;;
64826;SDS011;51265;53.972;12.286;2023-08-12T09:02:54;3.67;;;1.30;;
64826;SDS011;51265;53.972;12.286;2023-08-12T09:05:22;3.38;;;1.50;;
64826;SDS011;51265;53.972;12.286;2023-08-12T09:07:49;4.93;;;1.60;;
64826;SDS011;51265;53.972;12.286;2023-08-12T09:10:16;3.38;;;1.55;;
64826;SDS011;51265;53.972;12.286;2023-08-12T09:12:46;4.22;;;1.60;;
64826;SDS011;51265;53.972;12.286;2023-08-12T09:15:13;4.20;;;1.77;;
64826;SDS011;51265;53.972;12.286;2023-08-12T09:17:42;3.80;;;1.60;;
64826;SDS011;51265;53.972;12.286;2023-08-12T09:20:08;4.18;;;1.45;;
64826;SDS011;51265;53.972;12.286;2023-08-12T09:22:38;4.22;;;1.73;;
64826;SDS011;51265;53.972;12.286;2023-08-12T09:25:05;2.20;;;1.42;;
64826;SDS011;51265;53.972;12.286;2023-08-12T09:27:32;2.90;;;1.60;;
64826;SDS011;51265;53.972;12.286;2023-08-12T09:29:58;10.85;;;1.80;;
64826;SDS011;51265;53.972;12.286;2023-08-12T09:32:28;4.40;;;1.38;;
64826;SDS011;51265;53.972;12.286;2023-08-12T09:34:54;4.03;;;1.70;;
64826;SDS011;51265;53.972;12.286;2023-08-12T09:37:22;4.30;;;1.63;;
64826;SDS011;51265;53.972;12.286;2023-08-12T09:39:50;3.63;;;1.45;;
64826;SDS011;51265;53.972;12.286;2023-08-12T09:42:17;3.60;;;2.08;;
64826;SDS011;51265;53.972;12.286;2023-08-12T09:44:44;7.35;;;1.70;;
64826;SDS011;51265;53.972;12.286;2023-08-12T09:47:11;3.17;;;1.48;;
64826;SDS011;51265;53.972;12.286;2023-08-12T09:49:38;3.80;;;1.77;;
64826;SDS011;51265;53.972;12.286;2023-08-12T09:52:06;3.60;;;1.58;;
64826;SDS011;51265;53.972;12.286;2023-08-12T09:54:33;7.97;;;1.50;;
64826;SDS011;51265;53.972;12.286;2023-08-12T09:57:03;2.50;;;1.50;;
64826;SDS011;51265;53.972;12.286;2023-08-12T09:59:32;5.03;;;1.48;;
64826;SDS011;51265;53.972;12.286;2023-08-12T10:02:02;2.65;;;1.52;;
64826;SDS011;51265;53.972;12.286;2023-08-12T10:04:33;6.00;;;1.60;;
64826;SDS011;51265;53.972;12.286;2023-08-12T10:07:04;3.28;;;1.60;;
64826;SDS011;51265;53.972;12.286;2023-08-12T10:09:31;6.05;;;1.67;;
64826;SDS011;51265;53.972;12.286;2023-08-12T10:11:58;8.38;;;1.90;;
64826;SDS011;51265;53.972;12.286;2023-08-12T10:14:25;4.03;;;1.35;;
64826;SDS011;51265;53.972;12.286;2023-08-12T10:16:52;3.20;;;1.65;;
64826;SDS011;51265;53.972;12.286;2023-08-12T10:19:20;3.70;;;1.35;;
64826;SDS011;51265;53.972;12.286;2023-08-12T10:21:48;5.03;;;1.90;;
64826;SDS011;51265;53.972;12.286;2023-08-12T10:24:16;2.60;;;1.50;;
64826;SDS011;51265;53.972;12.286;2023-08-12T10:26:42;2.35;;;1.70;;
64826;SDS011;51265;53.972;12.286;2023-08-12T10:29:10;2.65;;;1.60;;
64826;SDS011;51265;53.972;12.286;2023-08-12T10:31:37;4.05;;;1.45;;
64826;SDS011;51265;53.972;12.286;2023-08-12T10:34:04;7.30;;;1.90;;
64826;SDS011;51265;53.972;12.286;2023-08-12T10:36:31;5.50;;;2.05;;
64826;SDS011;51265;53.972;12.286;2023-08-12T10:38:57;4.82;;;1.65;;
64826;SDS011;51265;53.972;12.286;2023-08-12T10:41:24;3.65;;;1.60;;
64826;SDS011;51265;53.972;12.286;2023-08-12T10:44:00;3.10;;;1.70;;
64826;SDS011;51265;53.972;12.286;2023-08-12T10:46:33;6.22;;;1.55;;
64826;SDS011;51265;53.972;12.286;2023-08-12T10:54:18;3.03;;;1.52;;
64826;SDS011;51265;53.972;12.286;2023-08-12T11:04:43;5.80;;;1.95;;
64826;SDS011;51265;53.972;12.286;2023-08-12T11:07:20;3.28;;;1.75;;
64826;SDS011;51265;53.972;12.286;2023-08-12T11:09:51;3.97;;;1.83;;
64826;SDS011;51265;53.972;12.286;2023-08-12T11:12:28;2.22;;;1.50;;
64826;SDS011;51265;53.972;12.286;2023-08-12T11:14:57;3.80;;;1.90;;
64826;SDS011;51265;53.972;12.286;2023-08-12T11:17:33;3.13;;;1.65;;
64826;SDS011;51265;53.972;12.286;2023-08-12T11:20:01;2.45;;;1.77;;
64826;SDS011;51265;53.972;12.286;2023-08-12T11:22:30;4.45;;;1.70;;
64826;SDS011;51265;53.972;12.286;2023-08-12T11:24:58;4.22;;;1.70;;
64826;SDS011;51265;53.972;12.286;2023-08-12T11:27:25;2.95;;;1.73;;
64826;SDS011;51265;53.972;12.286;2023-08-12T11:29:51;3.83;;;1.90;;
64826;SDS011;51265;53.972;12.286;2023-08-12T11:32:18;2.55;;;1.73;;
64826;SDS011;51265;53.972;12.286;2023-08-12T11:34:45;4.80;;;1.52;;
64826;SDS011;51265;53.972;12.286;2023-08-12T11:37:26;4.70;;;2.17;;
64826;SDS011;51265;53.972;12.286;2023-08-12T11:39:52;5.97;;;1.70;;
64826;SDS011;51265;53.972;12.286;2023-08-12T11:42:18;2.40;;;1.55;;
64826;SDS011;51265;53.972;12.286;2023-08-12T11:44:44;2.45;;;1.77;;
64826;SDS011;51265;53.972;12.286;2023-08-12T11:47:11;5.15;;;1.77;;
64826;SDS011;51265;53.972;12.286;2023-08-12T11:49:37;6.90;;;2.05;;
64826;SDS011;51265;53.972;12.286;2023-08-12T11:52:03;6.57;;;1.80;;
64826;SDS011;51265;53.972;12.286;2023-08-12T11:54:30;7.88;;;2.03;;
64826;SDS011;51265;53.972;12.286;2023-08-12T11:56:57;6.32;;;1.95;;
64826;SDS011;51265;53.972;12.286;2023-08-12T11:59:24;3.45;;;1.63;;
64826;SDS011;51265;53.972;12.286;2023-08-12T12:01:52;4.00;;;1.92;;
64826;SDS011;51265;53.972;12.286;2023-08-12T12:04:20;4.45;;;2.10;;
64826;SDS011;51265;53.972;12.286;2023-08-12T12:06:47;2.50;;;1.90;;
64826;SDS011;51265;53.972;12.286;2023-08-12T12:09:14;4.05;;;2.17;;
64826;SDS011;51265;53.972;12.286;2023-08-12T12:11:41;3.25;;;1.83;;
64826;SDS011;51265;53.972;12.286;2023-08-12T12:14:08;6.45;;;1.83;;
64826;SDS011;51265;53.972;12.286;2023-08-12T12:16:43;5.93;;;2.13;;
64826;SDS011;51265;53.972;12.286;2023-08-12T12:19:16;4.38;;;2.30;;
64826;SDS011;51265;53.972;12.286;2023-08-12T12:21:45;5.43;;;1.90;;
64826;SDS011;51265;53.972;12.286;2023-08-12T12:24:15;3.70;;;1.80;;
64826;SDS011;51265;53.972;12.286;2023-08-12T12:26:41;4.65;;;2.20;;
64826;SDS011;51265;53.972;12.286;2023-08-12T12:29:09;3.83;;;2.00;;
64826;SDS011;51265;53.972;12.286;2023-08-12T12:31:37;4.72;;;1.85;;
64826;SDS011;51265;53.972;12.286;2023-08-12T12:34:04;5.20;;;1.92;;
64826;SDS011;51265;53.972;12.286;2023-08-12T12:36:32;6.13;;;1.80;;
64826;SDS011;51265;53.972;12.286;2023-08-12T12:39:00;5.32;;;1.70;;
64826;SDS011;51265;53.972;12.286;2023-08-12T12:41:28;4.57;;;1.95;;
64826;SDS011;51265;53.972;12.286;2023-08-12T12:43:54;3.00;;;1.88;;
64826;SDS011;51265;53.972;12.286;2023-08-12T12:46:20;3.45;;;1.77;;
64826;SDS011;51265;53.972;12.286;2023-08-12T12:48:47;4.75;;;1.80;;
64826;SDS011;51265;53.972;12.286;2023-08-12T12:51:13;6.53;;;1.98;;
64826;SDS011;51265;53.972;12.286;2023-08-12T12:53:40;2.90;;;1.95;;
64826;SDS011;51265;53.972;12.286;2023-08-12T12:56:07;4.15;;;2.00;;
64826;SDS011;51265;53.972;12.286;2023-08-12T12:58:33;3.60;;;2.10;;
64826;SDS011;51265;53.972;12.286;2023-08-12T13:01:00;4.38;;;1.88;;
64826;SDS011;51265;53.972;12.286;2023-08-12T13:03:27;7.07;;;2.33;;
64826;SDS011;51265;53.972;12.286;2023-08-12T13:05:53;3.22;;;2.05;;
64826;SDS011;51265;53.972;12.286;2023-08-12T13:08:20;3.17;;;1.85;;
64826;SDS011;51265;53.972;12.286;2023-08-12T13:10:46;4.80;;;2.10;;
64826;SDS011;51265;53.972;12.286;2023-08-12T13:13:13;3.53;;;2.00;;
64826;SDS011;51265;53.972;12.286;2023-08-12T13:15:42;6.05;;;2.08;;
64826;SDS011;51265;53.972;12.286;2023-08-12T13:18:09;3.67;;;1.73;;
64826;SDS011;51265;53.972;12.286;2023-08-12T13:20:35;2.53;;;1.65;;
64826;SDS011;51265;53.972;12.286;2023-08-12T13:23:02;4.53;;;2.10;;
64826;SDS011;51265;53.972;12.286;2023-08-12T13:25:29;6.30;;;2.13;;
64826;SDS011;51265;53.972;12.286;2023-08-12T13:27:57;4.70;;;1.90;;
64826;SDS011;51265;53.972;12.286;2023-08-12T13:30:24;6.32;;;2.75;;
64826;SDS011;51265;53.972;12.286;2023-08-12T13:32:50;4.97;;;2.13;;
64826;SDS011;51265;53.972;12.286;2023-08-12T13:35:17;5.65;;;2.20;;
64826;SDS011;51265;53.972;12.286;2023-08-12T13:37:43;3.53;;;2.15;;
64826;SDS011;51265;53.972;12.286;2023-08-12T13:40:09;4.45;;;1.95;;
64826;SDS011;51265;53.972;12.286;2023-08-12T13:42:38;5.40;;;2.50;;
64826;SDS011;51265;53.972;12.286;2023-08-12T13:45:04;3.70;;;2.28;;
64826;SDS011;51265;53.972;12.286;2023-08-12T13:47:31;4.47;;;2.13;;
64826;SDS011;51265;53.972;12.286;2023-08-12T13:49:57;4.47;;;2.00;;
64826;SDS011;51265;53.972;12.286;2023-08-12T13:52:23;5.72;;;2.55;;
64826;SDS011;51265;53.972;12.286;2023-08-12T13:54:50;6.93;;;2.67;;
64826;SDS011;51265;53.972;12.286;2023-08-12T13:57:16;8.10;;;2.13;;
64826;SDS011;51265;53.972;12.286;2023-08-12T13:59:42;3.88;;;2.33;;
64826;SDS011;51265;53.972;12.286;2023-08-12T14:02:10;3.58;;;2.15;;
64826;SDS011;51265;53.972;12.286;2023-08-12T14:04:36;5.78;;;1.90;;
64826;SDS011;51265;53.972;12.286;2023-08-12T14:07:03;4.90;;;2.63;;
64826;SDS011;51265;53.972;12.286;2023-08-12T14:09:30;3.13;;;2.33;;
64826;SDS011;51265;53.972;12.286;2023-08-12T14:11:56;5.20;;;2.45;;
64826;SDS011;51265;53.972;12.286;2023-08-12T14:14:23;3.92;;;2.22;;
64826;SDS011;51265;53.972;12.286;2023-08-12T14:16:53;5.00;;;2.05;;
64826;SDS011;51265;53.972;12.286;2023-08-12T14:19:20;3.45;;;2.05;;
64826;SDS011;51265;53.972;12.286;2023-08-12T14:21:46;6.15;;;2.10;;
64826;SDS011;51265;53.972;12.286;2023-08-12T14:24:12;5.03;;;2.38;;
64826;SDS011;51265;53.972;12.286;2023-08-12T14:26:39;4.18;;;2.25;;
64826;SDS011;51265;53.972;12.286;2023-08-12T14:29:05;5.03;;;2.55;;
64826;SDS011;51265;53.972;12.286;2023-08-12T14:31:33;4.47;;;2.63;;
64826;SDS011;51265;53.972;12.286;2023-08-12T14:34:00;5.88;;;2.50;;
64826;SDS011;51265;53.972;12.286;2023-08-12T14:36:27;6.78;;;2.40;;
64826;SDS011;51265;53.972;12.286;2023-08-12T14:38:53;3.88;;;2.42;;
64826;SDS011;51265;53.972;12.286;2023-08-12T14:41:19;3.67;;;2.10;;
64826;SDS011;51265;53.972;12.286;2023-08-12T14:43:46;5.50;;;2.47;;
64826;SDS011;51265;53.972;12.286;2023-08-12T14:46:12;3.85;;;2.40;;
64826;SDS011;51265;53.972;12.286;2023-08-12T14:48:38;3.28;;;2.10;;
64826;SDS011;51265;53.972;12.286;2023-08-12T14:51:04;4.50;;;2.10;;
64826;SDS011;51265;53.972;12.286;2023-08-12T14:53:30;4.15;;;2.60;;
64826;SDS011;51265;53.972;12.286;2023-08-12T14:55:57;4.90;;;2.60;;
64826;SDS011;51265;53.972;12.286;2023-08-12T14:58:23;2.88;;;2.15;;
64826;SDS011;51265;53.972;12.286;2023-08-12T15:00:49;3.13;;;2.10;;
64826;SDS011;51265;53.972;12.286;2023-08-12T15:03:16;4.90;;;2.40;;